sensor_id;sensor_type;location;lat;lon;timestamp;P1;durP1;ratioP1;P2;durP2;ratioP2
5121;SDS011;2563;52.242;7.956;2023-03-05T00:00:11;14.23;;;6.60;;
5121;SDS011;2563;52.242;7.956;2023-03-05T00:02:38;15.47;;;7.47;;
5121;SDS011;2563;52.242;7.956;2023-03-05T00:05:04;14.83;;;5.17;;
5121;SDS011;2563;52.242;7.956;2023-03-05T00:07:30;14.80;;;5.27;;
5121;SDS011;2563;52.242;7.956;2023-03-05T00:09:57;15.63;;;5.40;;
5121;SDS011;2563;52.242;7.956;2023-03-05T00:12:28;21.50;;;2.40;;
5121;SDS011;2563;52.242;7.956;2023-03-05T00:14:53;15.33;;;4.30;;
5121;SDS011;2563;52.242;7.956;2023-03-05T00:17:19;10.27;;;3.40;;
5121;SDS011;2563;52.242;7.956;2023-03-05T00:19:44;15.30;;;2.23;;
5121;SDS011;2563;52.242;7.956;2023-03-05T00:22:09;14.27;;;3.03;;
5121;SDS011;2563;52.242;7.956;2023-03-05T00:24:35;17.87;;;3.27;;
5121;SDS011;2563;52.242;7.956;2023-03-05T00:27:00;6.80;;;1.40;;
5121;SDS011;2563;52.242;7.956;2023-03-05T00:29:26;21.63;;;3.30;;
5121;SDS011;2563;52.242;7.956;2023-03-05T00:31:52;12.10;;;2.20;;
5121;SDS011;2563;52.242;7.956;2023-03-05T00:34:18;7.50;;;1.70;;
5121;SDS011;2563;52.242;7.956;2023-03-05T00:36:46;12.40;;;2.10;;
5121;SDS011;2563;52.242;7.956;2023-03-05T00:39:16;10.00;;;2.17;;
5121;SDS011;2563;52.242;7.956;2023-03-05T00:41:42;8.20;;;2.60;;
5121;SDS011;2563;52.242;7.956;2023-03-05T00:44:08;9.77;;;2.30;;
5121;SDS011;2563;52.242;7.956;2023-03-05T00:46:34;12.90;;;2.77;;
5121;SDS011;2563;52.242;7.956;2023-03-05T00:48:59;7.37;;;2.43;;
5121;SDS011;2563;52.242;7.956;2023-03-05T00:51:25;8.50;;;2.70;;
5121;SDS011;2563;52.242;7.956;2023-03-05T00:53:51;7.53;;;2.30;;
5121;SDS011;2563;52.242;7.956;2023-03-05T00:56:16;7.70;;;2.50;;
5121;SDS011;2563;52.242;7.956;2023-03-05T00:58:42;12.50;;;3.90;;
5121;SDS011;2563;52.242;7.956;2023-03-05T01:01:07;16.70;;;5.70;;
5121;SDS011;2563;52.242;7.956;2023-03-05T01:03:33;35.20;;;10.30;;
5121;SDS011;2563;52.242;7.956;2023-03-05T01:05:59;43.00;;;8.90;;
5121;SDS011;2563;52.242;7.956;2023-03-05T01:08:27;36.73;;;8.90;;
5121;SDS011;2563;52.242;7.956;2023-03-05T01:10:53;7.93;;;2.90;;
5121;SDS011;2563;52.242;7.956;2023-03-05T01:13:19;13.20;;;2.17;;
5121;SDS011;2563;52.242;7.956;2023-03-05T01:15:44;9.57;;;2.60;;
5121;SDS011;2563;52.242;7.956;2023-03-05T01:18:12;9.13;;;1.87;;
5121;SDS011;2563;52.242;7.956;2023-03-05T01:20:37;12.27;;;2.23;;
5121;SDS011;2563;52.242;7.956;2023-03-05T01:23:02;7.50;;;2.50;;
5121;SDS011;2563;52.242;7.956;2023-03-05T01:25:28;6.20;;;2.00;;
5121;SDS011;2563;52.242;7.956;2023-03-05T01:27:53;10.37;;;2.20;;
5121;SDS011;2563;52.242;7.956;2023-03-05T01:30:19;9.53;;;2.23;;
5121;SDS011;2563;52.242;7.956;2023-03-05T01:32:44;7.00;;;1.40;;
5121;SDS011;2563;52.242;7.956;2023-03-05T01:35:11;13.43;;;2.20;;
5121;SDS011;2563;52.242;7.956;2023-03-05T01:37:41;7.23;;;1.87;;
5121;SDS011;2563;52.242;7.956;2023-03-05T01:40:07;5.80;;;1.70;;
5121;SDS011;2563;52.242;7.956;2023-03-05T01:42:34;9.23;;;1.77;;
5121;SDS011;2563;52.242;7.956;2023-03-05T01:45:00;9.83;;;1.80;;
5121;SDS011;2563;52.242;7.956;2023-03-05T01:47:26;8.77;;;1.80;;
5121;SDS011;2563;52.242;7.956;2023-03-05T01:49:52;8.77;;;2.00;;
5121;SDS011;2563;52.242;7.956;2023-03-05T01:52:18;4.23;;;1.50;;
5121;SDS011;2563;52.242;7.956;2023-03-05T01:54:58;6.20;;;2.60;;
5121;SDS011;2563;52.242;7.956;2023-03-05T02:00:07;7.60;;;2.00;;
5121;SDS011;2563;52.242;7.956;2023-03-05T02:02:35;7.80;;;2.40;;
5121;SDS011;2563;52.242;7.956;2023-03-05T02:05:02;4.50;;;1.43;;
5121;SDS011;2563;52.242;7.956;2023-03-05T02:07:30;7.20;;;1.97;;
5121;SDS011;2563;52.242;7.956;2023-03-05T02:09:56;11.13;;;2.17;;
5121;SDS011;2563;52.242;7.956;2023-03-05T02:12:22;6.90;;;1.77;;
5121;SDS011;2563;52.242;7.956;2023-03-05T02:14:48;17.23;;;2.53;;
5121;SDS011;2563;52.242;7.956;2023-03-05T02:17:15;8.97;;;2.23;;
5121;SDS011;2563;52.242;7.956;2023-03-05T02:19:48;10.53;;;2.30;;
5121;SDS011;2563;52.242;7.956;2023-03-05T02:22:16;11.67;;;3.43;;
5121;SDS011;2563;52.242;7.956;2023-03-05T02:24:42;20.13;;;2.00;;
5121;SDS011;2563;52.242;7.956;2023-03-05T02:27:08;13.17;;;2.30;;
5121;SDS011;2563;52.242;7.956;2023-03-05T02:29:34;10.93;;;2.10;;
5121;SDS011;2563;52.242;7.956;2023-03-05T02:32:03;7.20;;;2.20;;
5121;SDS011;2563;52.242;7.956;2023-03-05T02:34:28;7.30;;;1.93;;
5121;SDS011;2563;52.242;7.956;2023-03-05T02:36:54;10.37;;;2.10;;
5121;SDS011;2563;52.242;7.956;2023-03-05T02:39:19;6.93;;;1.77;;
5121;SDS011;2563;52.242;7.956;2023-03-05T02:41:45;4.80;;;2.43;;
5121;SDS011;2563;52.242;7.956;2023-03-05T02:44:10;8.70;;;2.07;;
5121;SDS011;2563;52.242;7.956;2023-03-05T02:46:35;12.17;;;2.97;;
5121;SDS011;2563;52.242;7.956;2023-03-05T02:49:01;7.40;;;2.13;;
5121;SDS011;2563;52.242;7.956;2023-03-05T02:51:26;7.03;;;2.10;;
5121;SDS011;2563;52.242;7.956;2023-03-05T02:53:52;7.30;;;2.70;;
5121;SDS011;2563;52.242;7.956;2023-03-05T02:56:17;7.80;;;2.47;;
5121;SDS011;2563;52.242;7.956;2023-03-05T02:58:42;7.60;;;2.27;;
5121;SDS011;2563;52.242;7.956;2023-03-05T03:01:08;11.23;;;1.87;;
5121;SDS011;2563;52.242;7.956;2023-03-05T03:03:34;6.53;;;2.10;;
5121;SDS011;2563;52.242;7.956;2023-03-05T03:06:00;15.90;;;2.37;;
5121;SDS011;2563;52.242;7.956;2023-03-05T03:08:26;12.03;;;3.40;;
5121;SDS011;2563;52.242;7.956;2023-03-05T03:10:51;9.57;;;2.50;;
5121;SDS011;2563;52.242;7.956;2023-03-05T03:13:16;11.47;;;2.63;;
5121;SDS011;2563;52.242;7.956;2023-03-05T03:15:42;4.17;;;1.60;;
5121;SDS011;2563;52.242;7.956;2023-03-05T03:18:07;7.57;;;1.70;;
5121;SDS011;2563;52.242;7.956;2023-03-05T03:20:33;11.90;;;2.23;;
5121;SDS011;2563;52.242;7.956;2023-03-05T03:23:03;4.47;;;1.93;;
5121;SDS011;2563;52.242;7.956;2023-03-05T03:25:28;4.20;;;1.50;;
5121;SDS011;2563;52.242;7.956;2023-03-05T03:27:54;6.60;;;1.90;;
5121;SDS011;2563;52.242;7.956;2023-03-05T03:30:19;5.53;;;1.60;;
5121;SDS011;2563;52.242;7.956;2023-03-05T03:32:46;8.53;;;1.60;;
5121;SDS011;2563;52.242;7.956;2023-03-05T03:35:12;7.97;;;1.73;;
5121;SDS011;2563;52.242;7.956;2023-03-05T03:37:38;5.37;;;1.70;;
5121;SDS011;2563;52.242;7.956;2023-03-05T03:40:04;8.80;;;2.07;;
5121;SDS011;2563;52.242;7.956;2023-03-05T03:42:30;19.40;;;2.80;;
5121;SDS011;2563;52.242;7.956;2023-03-05T03:44:55;7.33;;;2.07;;
5121;SDS011;2563;52.242;7.956;2023-03-05T03:47:21;5.77;;;2.10;;
5121;SDS011;2563;52.242;7.956;2023-03-05T03:49:46;6.97;;;2.00;;
5121;SDS011;2563;52.242;7.956;2023-03-05T03:52:11;9.03;;;2.30;;
5121;SDS011;2563;52.242;7.956;2023-03-05T03:54:37;7.50;;;2.40;;
5121;SDS011;2563;52.242;7.956;2023-03-05T03:57:02;5.73;;;2.27;;
5121;SDS011;2563;52.242;7.956;2023-03-05T03:59:27;9.30;;;2.10;;
5121;SDS011;2563;52.242;7.956;2023-03-05T04:01:53;8.13;;;2.80;;
5121;SDS011;2563;52.242;7.956;2023-03-05T04:04:18;10.63;;;2.00;;
5121;SDS011;2563;52.242;7.956;2023-03-05T04:06:44;29.13;;;2.60;;
5121;SDS011;2563;52.242;7.956;2023-03-05T04:09:09;6.90;;;2.37;;
5121;SDS011;2563;52.242;7.956;2023-03-05T04:11:35;7.50;;;2.30;;
5121;SDS011;2563;52.242;7.956;2023-03-05T04:14:01;7.87;;;2.10;;
5121;SDS011;2563;52.242;7.956;2023-03-05T04:16:27;8.00;;;2.20;;
5121;SDS011;2563;52.242;7.956;2023-03-05T04:18:52;6.07;;;1.70;;
5121;SDS011;2563;52.242;7.956;2023-03-05T04:21:18;4.13;;;1.47;;
5121;SDS011;2563;52.242;7.956;2023-03-05T04:23:43;5.20;;;1.50;;
5121;SDS011;2563;52.242;7.956;2023-03-05T04:26:09;7.20;;;1.77;;
5121;SDS011;2563;52.242;7.956;2023-03-05T04:28:34;5.33;;;1.40;;
5121;SDS011;2563;52.242;7.956;2023-03-05T04:31:00;12.50;;;2.23;;
5121;SDS011;2563;52.242;7.956;2023-03-05T04:33:26;7.50;;;1.77;;
5121;SDS011;2563;52.242;7.956;2023-03-05T04:35:52;6.93;;;1.63;;
5121;SDS011;2563;52.242;7.956;2023-03-05T04:38:17;4.20;;;1.40;;
5121;SDS011;2563;52.242;7.956;2023-03-05T04:40:43;7.40;;;2.37;;
5121;SDS011;2563;52.242;7.956;2023-03-05T04:43:09;3.63;;;1.60;;
5121;SDS011;2563;52.242;7.956;2023-03-05T04:45:35;7.67;;;1.83;;
5121;SDS011;2563;52.242;7.956;2023-03-05T04:48:03;4.80;;;1.63;;
5121;SDS011;2563;52.242;7.956;2023-03-05T04:50:29;7.63;;;1.90;;
5121;SDS011;2563;52.242;7.956;2023-03-05T04:52:54;6.30;;;1.90;;
5121;SDS011;2563;52.242;7.956;2023-03-05T04:55:19;11.03;;;2.00;;
5121;SDS011;2563;52.242;7.956;2023-03-05T04:57:45;12.33;;;1.97;;
5121;SDS011;2563;52.242;7.956;2023-03-05T05:00:11;4.37;;;1.30;;
5121;SDS011;2563;52.242;7.956;2023-03-05T05:02:48;5.80;;;1.93;;
5121;SDS011;2563;52.242;7.956;2023-03-05T05:05:16;5.50;;;1.40;;
5121;SDS011;2563;52.242;7.956;2023-03-05T05:07:43;8.30;;;1.70;;
5121;SDS011;2563;52.242;7.956;2023-03-05T05:10:09;8.33;;;1.50;;
5121;SDS011;2563;52.242;7.956;2023-03-05T05:12:36;4.13;;;1.40;;
5121;SDS011;2563;52.242;7.956;2023-03-05T05:15:02;14.90;;;2.53;;
5121;SDS011;2563;52.242;7.956;2023-03-05T05:17:28;4.27;;;1.70;;
5121;SDS011;2563;52.242;7.956;2023-03-05T05:19:55;6.97;;;1.77;;
5121;SDS011;2563;52.242;7.956;2023-03-05T05:22:20;10.13;;;2.47;;
5121;SDS011;2563;52.242;7.956;2023-03-05T05:24:47;15.20;;;2.43;;
5121;SDS011;2563;52.242;7.956;2023-03-05T05:27:12;5.90;;;1.70;;
5121;SDS011;2563;52.242;7.956;2023-03-05T05:29:37;7.30;;;1.70;;
5121;SDS011;2563;52.242;7.956;2023-03-05T05:32:03;8.93;;;1.87;;
5121;SDS011;2563;52.242;7.956;2023-03-05T05:34:28;6.27;;;1.60;;
5121;SDS011;2563;52.242;7.956;2023-03-05T05:36:53;4.60;;;1.57;;
5121;SDS011;2563;52.242;7.956;2023-03-05T05:39:19;12.00;;;2.40;;
5121;SDS011;2563;52.242;7.956;2023-03-05T05:41:44;6.20;;;1.87;;
5121;SDS011;2563;52.242;7.956;2023-03-05T05:44:09;5.53;;;1.50;;
5121;SDS011;2563;52.242;7.956;2023-03-05T05:46:35;9.17;;;2.33;;
5121;SDS011;2563;52.242;7.956;2023-03-05T05:49:01;5.50;;;1.80;;
5121;SDS011;2563;52.242;7.956;2023-03-05T05:51:26;7.13;;;1.67;;
5121;SDS011;2563;52.242;7.956;2023-03-05T05:53:51;6.40;;;1.93;;
5121;SDS011;2563;52.242;7.956;2023-03-05T05:56:17;9.80;;;1.87;;
5121;SDS011;2563;52.242;7.956;2023-03-05T05:58:44;7.93;;;2.00;;
5121;SDS011;2563;52.242;7.956;2023-03-05T06:01:15;6.37;;;1.70;;
5121;SDS011;2563;52.242;7.956;2023-03-05T06:03:41;10.13;;;2.30;;
5121;SDS011;2563;52.242;7.956;2023-03-05T06:06:08;5.50;;;2.30;;
5121;SDS011;2563;52.242;7.956;2023-03-05T06:08:35;5.13;;;2.00;;
5121;SDS011;2563;52.242;7.956;2023-03-05T06:11:00;7.20;;;2.33;;
5121;SDS011;2563;52.242;7.956;2023-03-05T06:13:25;7.47;;;2.87;;
5121;SDS011;2563;52.242;7.956;2023-03-05T06:15:55;11.57;;;2.10;;
5121;SDS011;2563;52.242;7.956;2023-03-05T06:18:26;6.80;;;2.00;;
5121;SDS011;2563;52.242;7.956;2023-03-05T06:20:55;9.23;;;2.20;;
5121;SDS011;2563;52.242;7.956;2023-03-05T06:23:22;7.97;;;2.00;;
5121;SDS011;2563;52.242;7.956;2023-03-05T06:25:48;7.87;;;1.90;;
5121;SDS011;2563;52.242;7.956;2023-03-05T06:28:14;7.37;;;2.10;;
5121;SDS011;2563;52.242;7.956;2023-03-05T06:30:39;10.03;;;2.13;;
5121;SDS011;2563;52.242;7.956;2023-03-05T06:33:04;6.30;;;1.77;;
5121;SDS011;2563;52.242;7.956;2023-03-05T06:35:30;6.20;;;2.10;;
5121;SDS011;2563;52.242;7.956;2023-03-05T06:37:56;7.80;;;2.40;;
5121;SDS011;2563;52.242;7.956;2023-03-05T06:40:22;9.37;;;2.57;;
5121;SDS011;2563;52.242;7.956;2023-03-05T06:42:47;12.77;;;1.90;;
5121;SDS011;2563;52.242;7.956;2023-03-05T06:45:12;7.03;;;2.60;;
5121;SDS011;2563;52.242;7.956;2023-03-05T06:47:38;6.10;;;1.90;;
5121;SDS011;2563;52.242;7.956;2023-03-05T06:50:04;11.77;;;2.17;;
5121;SDS011;2563;52.242;7.956;2023-03-05T06:52:29;6.63;;;1.97;;
5121;SDS011;2563;52.242;7.956;2023-03-05T06:54:55;5.43;;;1.90;;
5121;SDS011;2563;52.242;7.956;2023-03-05T06:57:21;8.27;;;2.33;;
5121;SDS011;2563;52.242;7.956;2023-03-05T06:59:47;11.23;;;1.93;;
5121;SDS011;2563;52.242;7.956;2023-03-05T07:02:12;13.20;;;2.30;;
5121;SDS011;2563;52.242;7.956;2023-03-05T07:04:38;9.00;;;2.87;;
5121;SDS011;2563;52.242;7.956;2023-03-05T07:07:04;11.73;;;3.80;;
5121;SDS011;2563;52.242;7.956;2023-03-05T07:09:29;10.30;;;4.60;;
5121;SDS011;2563;52.242;7.956;2023-03-05T07:11:55;8.13;;;3.40;;
5121;SDS011;2563;52.242;7.956;2023-03-05T07:14:20;7.10;;;2.70;;
5121;SDS011;2563;52.242;7.956;2023-03-05T07:16:46;7.43;;;3.10;;
5121;SDS011;2563;52.242;7.956;2023-03-05T07:19:11;5.03;;;2.03;;
5121;SDS011;2563;52.242;7.956;2023-03-05T07:21:37;11.40;;;3.27;;
5121;SDS011;2563;52.242;7.956;2023-03-05T07:24:03;14.40;;;3.03;;
5121;SDS011;2563;52.242;7.956;2023-03-05T07:26:29;14.60;;;5.30;;
5121;SDS011;2563;52.242;7.956;2023-03-05T07:28:57;9.93;;;3.90;;
5121;SDS011;2563;52.242;7.956;2023-03-05T07:31:23;10.20;;;3.67;;
5121;SDS011;2563;52.242;7.956;2023-03-05T07:33:55;9.70;;;2.73;;
5121;SDS011;2563;52.242;7.956;2023-03-05T07:36:23;15.33;;;4.20;;
5121;SDS011;2563;52.242;7.956;2023-03-05T07:38:49;8.57;;;3.40;;
5121;SDS011;2563;52.242;7.956;2023-03-05T07:41:15;12.57;;;3.10;;
5121;SDS011;2563;52.242;7.956;2023-03-05T07:43:46;14.63;;;3.00;;
5121;SDS011;2563;52.242;7.956;2023-03-05T07:46:13;7.10;;;2.60;;
5121;SDS011;2563;52.242;7.956;2023-03-05T07:48:40;9.57;;;3.40;;
5121;SDS011;2563;52.242;7.956;2023-03-05T07:51:07;6.47;;;2.87;;
5121;SDS011;2563;52.242;7.956;2023-03-05T07:53:38;6.67;;;2.83;;
5121;SDS011;2563;52.242;7.956;2023-03-05T07:56:04;9.67;;;2.77;;
5121;SDS011;2563;52.242;7.956;2023-03-05T08:01:52;15.60;;;3.00;;
5121;SDS011;2563;52.242;7.956;2023-03-05T08:04:17;7.67;;;3.00;;
5121;SDS011;2563;52.242;7.956;2023-03-05T08:06:42;9.03;;;3.13;;
5121;SDS011;2563;52.242;7.956;2023-03-05T08:09:08;13.60;;;5.13;;
5121;SDS011;2563;52.242;7.956;2023-03-05T08:11:33;13.50;;;4.73;;
5121;SDS011;2563;52.242;7.956;2023-03-05T08:13:59;32.77;;;10.07;;
5121;SDS011;2563;52.242;7.956;2023-03-05T08:16:25;10.57;;;4.47;;
5121;SDS011;2563;52.242;7.956;2023-03-05T08:18:53;7.37;;;3.13;;
5121;SDS011;2563;52.242;7.956;2023-03-05T08:21:21;19.00;;;5.33;;
5121;SDS011;2563;52.242;7.956;2023-03-05T08:23:53;9.53;;;4.50;;
5121;SDS011;2563;52.242;7.956;2023-03-05T08:26:20;22.77;;;7.70;;
5121;SDS011;2563;52.242;7.956;2023-03-05T08:28:46;9.93;;;3.40;;
5121;SDS011;2563;52.242;7.956;2023-03-05T08:31:13;4.20;;;1.93;;
5121;SDS011;2563;52.242;7.956;2023-03-05T08:33:39;7.03;;;2.40;;
5121;SDS011;2563;52.242;7.956;2023-03-05T08:36:05;8.87;;;4.33;;
5121;SDS011;2563;52.242;7.956;2023-03-05T08:38:32;8.73;;;3.20;;
5121;SDS011;2563;52.242;7.956;2023-03-05T08:40:58;7.63;;;3.60;;
5121;SDS011;2563;52.242;7.956;2023-03-05T08:43:23;6.33;;;2.60;;
5121;SDS011;2563;52.242;7.956;2023-03-05T08:45:48;7.73;;;3.10;;
5121;SDS011;2563;52.242;7.956;2023-03-05T08:48:15;7.90;;;3.20;;
5121;SDS011;2563;52.242;7.956;2023-03-05T08:50:40;15.33;;;3.67;;
5121;SDS011;2563;52.242;7.956;2023-03-05T08:53:06;8.53;;;4.07;;
5121;SDS011;2563;52.242;7.956;2023-03-05T08:55:32;9.20;;;3.50;;
5121;SDS011;2563;52.242;7.956;2023-03-05T08:57:58;8.43;;;2.80;;
5121;SDS011;2563;52.242;7.956;2023-03-05T09:00:23;7.00;;;2.90;;
5121;SDS011;2563;52.242;7.956;2023-03-05T09:02:48;8.30;;;3.20;;
5121;SDS011;2563;52.242;7.956;2023-03-05T09:05:15;8.10;;;2.50;;
5121;SDS011;2563;52.242;7.956;2023-03-05T09:07:40;9.67;;;2.83;;
5121;SDS011;2563;52.242;7.956;2023-03-05T09:10:06;9.43;;;3.47;;
5121;SDS011;2563;52.242;7.956;2023-03-05T09:12:34;12.80;;;2.40;;
5121;SDS011;2563;52.242;7.956;2023-03-05T09:14:59;7.77;;;2.47;;
5121;SDS011;2563;52.242;7.956;2023-03-05T09:17:24;4.53;;;2.10;;
5121;SDS011;2563;52.242;7.956;2023-03-05T09:19:50;7.20;;;1.93;;
5121;SDS011;2563;52.242;7.956;2023-03-05T09:22:15;8.50;;;1.83;;
5121;SDS011;2563;52.242;7.956;2023-03-05T09:24:40;6.20;;;2.03;;
5121;SDS011;2563;52.242;7.956;2023-03-05T09:27:07;6.47;;;1.77;;
5121;SDS011;2563;52.242;7.956;2023-03-05T09:29:32;4.40;;;1.80;;
5121;SDS011;2563;52.242;7.956;2023-03-05T09:31:58;12.20;;;1.57;;
5121;SDS011;2563;52.242;7.956;2023-03-05T09:34:23;4.93;;;1.70;;
5121;SDS011;2563;52.242;7.956;2023-03-05T09:36:48;7.70;;;1.87;;
5121;SDS011;2563;52.242;7.956;2023-03-05T09:39:14;11.33;;;4.30;;
5121;SDS011;2563;52.242;7.956;2023-03-05T09:44:50;7.30;;;2.10;;
5121;SDS011;2563;52.242;7.956;2023-03-05T09:52:45;4.40;;;1.73;;
5121;SDS011;2563;52.242;7.956;2023-03-05T09:55:45;5.13;;;1.60;;
5121;SDS011;2563;52.242;7.956;2023-03-05T09:58:51;7.77;;;1.73;;
5121;SDS011;2563;52.242;7.956;2023-03-05T10:01:21;5.57;;;1.37;;
5121;SDS011;2563;52.242;7.956;2023-03-05T10:04:00;10.30;;;1.70;;
5121;SDS011;2563;52.242;7.956;2023-03-05T10:07:22;7.50;;;1.60;;
5121;SDS011;2563;52.242;7.956;2023-03-05T10:09:47;5.93;;;1.70;;
5121;SDS011;2563;52.242;7.956;2023-03-05T10:17:52;4.60;;;1.53;;
5121;SDS011;2563;52.242;7.956;2023-03-05T10:45:25;8.10;;;2.60;;
5121;SDS011;2563;52.242;7.956;2023-03-05T10:47:54;3.73;;;1.50;;
5121;SDS011;2563;52.242;7.956;2023-03-05T10:50:45;8.10;;;1.40;;
5121;SDS011;2563;52.242;7.956;2023-03-05T10:53:51;7.27;;;1.90;;
5121;SDS011;2563;52.242;7.956;2023-03-05T10:56:06;8.57;;;1.47;;
5121;SDS011;2563;52.242;7.956;2023-03-05T10:58:33;5.13;;;1.93;;
5121;SDS011;2563;52.242;7.956;2023-03-05T11:03:52;8.33;;;2.80;;
5121;SDS011;2563;52.242;7.956;2023-03-05T11:09:07;5.20;;;1.10;;
5121;SDS011;2563;52.242;7.956;2023-03-05T11:11:39;5.20;;;1.50;;
5121;SDS011;2563;52.242;7.956;2023-03-05T11:14:04;5.37;;;1.03;;
5121;SDS011;2563;52.242;7.956;2023-03-05T11:16:31;4.50;;;1.20;;
5121;SDS011;2563;52.242;7.956;2023-03-05T11:19:14;3.60;;;1.20;;
5121;SDS011;2563;52.242;7.956;2023-03-05T11:21:41;3.80;;;1.27;;
5121;SDS011;2563;52.242;7.956;2023-03-05T11:24:11;8.60;;;1.40;;
5121;SDS011;2563;52.242;7.956;2023-03-05T11:26:49;2.90;;;0.83;;
5121;SDS011;2563;52.242;7.956;2023-03-05T11:29:22;4.93;;;1.17;;
5121;SDS011;2563;52.242;7.956;2023-03-05T11:31:52;5.53;;;1.50;;
5121;SDS011;2563;52.242;7.956;2023-03-05T11:39:16;4.03;;;1.33;;
5121;SDS011;2563;52.242;7.956;2023-03-05T11:44:14;7.47;;;1.90;;
5121;SDS011;2563;52.242;7.956;2023-03-05T11:46:46;5.80;;;1.50;;
5121;SDS011;2563;52.242;7.956;2023-03-05T11:49:15;3.53;;;1.13;;
5121;SDS011;2563;52.242;7.956;2023-03-05T11:52:05;6.40;;;1.67;;
5121;SDS011;2563;52.242;7.956;2023-03-05T11:55:20;5.43;;;1.60;;
5121;SDS011;2563;52.242;7.956;2023-03-05T11:58:03;8.83;;;1.53;;
5121;SDS011;2563;52.242;7.956;2023-03-05T12:00:36;4.60;;;1.30;;
5121;SDS011;2563;52.242;7.956;2023-03-05T12:03:10;4.60;;;1.23;;
5121;SDS011;2563;52.242;7.956;2023-03-05T12:05:47;3.87;;;1.13;;
5121;SDS011;2563;52.242;7.956;2023-03-05T12:08:30;2.87;;;1.10;;
5121;SDS011;2563;52.242;7.956;2023-03-05T12:11:00;5.30;;;1.50;;
5121;SDS011;2563;52.242;7.956;2023-03-05T12:13:34;3.03;;;0.97;;
5121;SDS011;2563;52.242;7.956;2023-03-05T12:27:06;2.00;;;0.83;;
5121;SDS011;2563;52.242;7.956;2023-03-05T12:47:37;3.10;;;1.43;;
5121;SDS011;2563;52.242;7.956;2023-03-05T12:50:03;6.63;;;1.40;;
5121;SDS011;2563;52.242;7.956;2023-03-05T12:52:31;7.10;;;1.00;;
5121;SDS011;2563;52.242;7.956;2023-03-05T12:55:12;2.53;;;0.93;;
5121;SDS011;2563;52.242;7.956;2023-03-05T12:57:42;7.07;;;1.07;;
5121;SDS011;2563;52.242;7.956;2023-03-05T13:00:09;2.60;;;1.07;;
5121;SDS011;2563;52.242;7.956;2023-03-05T13:02:45;5.90;;;1.23;;
5121;SDS011;2563;52.242;7.956;2023-03-05T13:07:46;4.33;;;1.40;;
5121;SDS011;2563;52.242;7.956;2023-03-05T13:10:22;5.50;;;1.10;;
5121;SDS011;2563;52.242;7.956;2023-03-05T13:12:50;4.23;;;1.00;;
5121;SDS011;2563;52.242;7.956;2023-03-05T13:15:25;6.33;;;0.90;;
5121;SDS011;2563;52.242;7.956;2023-03-05T13:18:00;8.63;;;1.20;;
5121;SDS011;2563;52.242;7.956;2023-03-05T13:20:32;3.63;;;0.87;;
5121;SDS011;2563;52.242;7.956;2023-03-05T13:23:15;4.63;;;1.27;;
5121;SDS011;2563;52.242;7.956;2023-03-05T13:25:44;2.83;;;0.90;;
5121;SDS011;2563;52.242;7.956;2023-03-05T13:28:25;4.67;;;1.20;;
5121;SDS011;2563;52.242;7.956;2023-03-05T13:31:01;3.97;;;1.50;;
5121;SDS011;2563;52.242;7.956;2023-03-05T13:33:36;2.90;;;1.10;;
5121;SDS011;2563;52.242;7.956;2023-03-05T13:36:01;3.30;;;0.80;;
5121;SDS011;2563;52.242;7.956;2023-03-05T13:38:30;4.40;;;1.10;;
5121;SDS011;2563;52.242;7.956;2023-03-05T13:43:42;2.90;;;0.70;;
5121;SDS011;2563;52.242;7.956;2023-03-05T13:46:13;7.03;;;1.30;;
5121;SDS011;2563;52.242;7.956;2023-03-05T13:48:49;3.40;;;0.90;;
5121;SDS011;2563;52.242;7.956;2023-03-05T13:51:15;2.80;;;0.70;;
5121;SDS011;2563;52.242;7.956;2023-03-05T13:53:41;3.03;;;0.80;;
5121;SDS011;2563;52.242;7.956;2023-03-05T13:56:11;3.03;;;1.10;;
5121;SDS011;2563;52.242;7.956;2023-03-05T13:58:42;7.43;;;1.17;;
5121;SDS011;2563;52.242;7.956;2023-03-05T14:01:12;2.40;;;0.70;;
5121;SDS011;2563;52.242;7.956;2023-03-05T14:03:38;4.33;;;0.90;;
5121;SDS011;2563;52.242;7.956;2023-03-05T14:06:08;3.63;;;1.00;;
5121;SDS011;2563;52.242;7.956;2023-03-05T14:08:36;3.57;;;0.77;;
5121;SDS011;2563;52.242;7.956;2023-03-05T14:11:14;3.63;;;0.93;;
5121;SDS011;2563;52.242;7.956;2023-03-05T14:13:41;3.83;;;1.03;;
5121;SDS011;2563;52.242;7.956;2023-03-05T14:16:08;3.77;;;0.90;;
5121;SDS011;2563;52.242;7.956;2023-03-05T14:18:37;3.37;;;1.03;;
5121;SDS011;2563;52.242;7.956;2023-03-05T14:21:09;4.60;;;1.67;;
5121;SDS011;2563;52.242;7.956;2023-03-05T14:23:40;8.73;;;2.60;;
5121;SDS011;2563;52.242;7.956;2023-03-05T14:29:03;11.20;;;2.50;;
5121;SDS011;2563;52.242;7.956;2023-03-05T14:34:36;3.10;;;1.00;;
5121;SDS011;2563;52.242;7.956;2023-03-05T14:37:05;2.63;;;1.10;;
5121;SDS011;2563;52.242;7.956;2023-03-05T14:39:50;2.53;;;0.77;;
5121;SDS011;2563;52.242;7.956;2023-03-05T14:45:10;2.80;;;0.83;;
5121;SDS011;2563;52.242;7.956;2023-03-05T14:47:36;2.73;;;0.90;;
5121;SDS011;2563;52.242;7.956;2023-03-05T14:50:01;3.93;;;0.83;;
5121;SDS011;2563;52.242;7.956;2023-03-05T14:52:26;1.70;;;0.80;;
5121;SDS011;2563;52.242;7.956;2023-03-05T14:54:52;2.43;;;0.70;;
5121;SDS011;2563;52.242;7.956;2023-03-05T14:57:20;5.53;;;1.03;;
5121;SDS011;2563;52.242;7.956;2023-03-05T14:59:49;2.20;;;0.80;;
5121;SDS011;2563;52.242;7.956;2023-03-05T15:02:15;11.50;;;0.80;;
5121;SDS011;2563;52.242;7.956;2023-03-05T15:04:45;1.90;;;0.73;;
5121;SDS011;2563;52.242;7.956;2023-03-05T15:07:30;2.60;;;0.80;;
5121;SDS011;2563;52.242;7.956;2023-03-05T15:09:56;2.83;;;0.63;;
5121;SDS011;2563;52.242;7.956;2023-03-05T15:12:22;3.83;;;0.80;;
5121;SDS011;2563;52.242;7.956;2023-03-05T15:14:51;5.03;;;1.50;;
5121;SDS011;2563;52.242;7.956;2023-03-05T15:17:19;4.63;;;1.33;;
5121;SDS011;2563;52.242;7.956;2023-03-05T15:19:47;3.40;;;1.30;;
5121;SDS011;2563;52.242;7.956;2023-03-05T15:22:14;5.17;;;1.67;;
5121;SDS011;2563;52.242;7.956;2023-03-05T15:24:40;7.13;;;1.33;;
5121;SDS011;2563;52.242;7.956;2023-03-05T15:27:06;7.13;;;1.10;;
5121;SDS011;2563;52.242;7.956;2023-03-05T15:29:31;5.13;;;1.40;;
5121;SDS011;2563;52.242;7.956;2023-03-05T15:31:57;4.10;;;1.20;;
5121;SDS011;2563;52.242;7.956;2023-03-05T15:34:22;7.50;;;1.10;;
5121;SDS011;2563;52.242;7.956;2023-03-05T15:36:48;4.30;;;1.20;;
5121;SDS011;2563;52.242;7.956;2023-03-05T15:39:13;4.50;;;1.20;;
5121;SDS011;2563;52.242;7.956;2023-03-05T15:41:38;4.00;;;0.97;;
5121;SDS011;2563;52.242;7.956;2023-03-05T15:44:04;3.40;;;0.87;;
5121;SDS011;2563;52.242;7.956;2023-03-05T15:46:29;2.53;;;1.03;;
5121;SDS011;2563;52.242;7.956;2023-03-05T15:48:56;7.70;;;2.03;;
5121;SDS011;2563;52.242;7.956;2023-03-05T15:51:21;4.20;;;1.10;;
5121;SDS011;2563;52.242;7.956;2023-03-05T15:53:47;9.33;;;2.77;;
5121;SDS011;2563;52.242;7.956;2023-03-05T15:56:13;3.00;;;1.40;;
5121;SDS011;2563;52.242;7.956;2023-03-05T15:58:40;6.90;;;3.10;;
5121;SDS011;2563;52.242;7.956;2023-03-05T16:01:07;8.50;;;2.57;;
5121;SDS011;2563;52.242;7.956;2023-03-05T16:03:33;9.13;;;1.57;;
5121;SDS011;2563;52.242;7.956;2023-03-05T16:05:58;12.07;;;4.43;;
5121;SDS011;2563;52.242;7.956;2023-03-05T16:08:24;9.37;;;3.00;;
5121;SDS011;2563;52.242;7.956;2023-03-05T16:10:49;6.10;;;2.43;;
5121;SDS011;2563;52.242;7.956;2023-03-05T16:13:14;4.70;;;2.23;;
5121;SDS011;2563;52.242;7.956;2023-03-05T16:15:41;5.03;;;2.70;;
5121;SDS011;2563;52.242;7.956;2023-03-05T16:18:09;8.60;;;2.73;;
5121;SDS011;2563;52.242;7.956;2023-03-05T16:20:38;7.40;;;2.40;;
5121;SDS011;2563;52.242;7.956;2023-03-05T16:23:04;10.17;;;3.20;;
5121;SDS011;2563;52.242;7.956;2023-03-05T16:25:30;4.70;;;2.60;;
5121;SDS011;2563;52.242;7.956;2023-03-05T16:27:56;6.03;;;3.00;;
5121;SDS011;2563;52.242;7.956;2023-03-05T16:30:21;10.93;;;5.07;;
5121;SDS011;2563;52.242;7.956;2023-03-05T16:32:46;3.83;;;1.60;;
5121;SDS011;2563;52.242;7.956;2023-03-05T16:35:12;7.43;;;2.00;;
5121;SDS011;2563;52.242;7.956;2023-03-05T16:37:38;7.13;;;1.77;;
5121;SDS011;2563;52.242;7.956;2023-03-05T16:40:04;2.77;;;1.30;;
5121;SDS011;2563;52.242;7.956;2023-03-05T16:42:31;6.50;;;1.97;;
5121;SDS011;2563;52.242;7.956;2023-03-05T16:44:56;11.60;;;2.40;;
5121;SDS011;2563;52.242;7.956;2023-03-05T16:47:23;11.87;;;4.13;;
5121;SDS011;2563;52.242;7.956;2023-03-05T16:49:48;12.13;;;4.53;;
5121;SDS011;2563;52.242;7.956;2023-03-05T16:52:13;12.57;;;3.77;;
5121;SDS011;2563;52.242;7.956;2023-03-05T16:54:39;5.77;;;2.70;;
5121;SDS011;2563;52.242;7.956;2023-03-05T16:57:06;5.50;;;1.37;;